Twin Bridges, CA

12:08 AM PDT on September 22, 2014 (GMT -0700)
Lower Gardner Mountain | Change Station
CLOSE
Current Station
Personal Weather Station
Location: South Lake Tahoe, CA
Elevation: 6316 ft
Nearby Weather Stations
Active Advisory: Dense Smoke Advisory

Elev 6316 ft 38.92 °N, 120.02 °W | Updated 7 minutes ago

Clear
Clear
49.8 °F
Feels Like 50 °F
N
0.0
Wind Variable Wind from ESE

Today
High -- | Low -- °F
--% Chance of Precip.
Yesterday
High -- | Low -- °F
Precip. -- in
6:47 AM 6:56 PM
Waning Crescent, 4% visible
Pressure 30.11 in
Visibility 10.0 miles
Clouds Clear
Windchill 50 °F
Dew Point 38 °F
Humidity 65%
Rainfall -9999.00 in
Snow Depth Not available.
UV 0 out of 12
Pollen 6.20 out of 12
Air Quality Not available.
Flu Activity Not available.
METAR KTVL 220653Z AUTO 20003KT 10SM CLR 08/03 A3024 RMK AO2 SLP196 T00780028

More Conditions Fewer Conditions

Pressure 30.11 in
Visibility 10.0 miles
Clouds Clear
Windchill 50 °F
Dew Point 38 °F
Humidity 65%
Rainfall -9999.00 in
Snow Depth Not available.
UV 0 out of 12
Pollen 6.20 out of 12
Air Quality Not available.
Flu Activity Not available.
METAR KTVL 220653Z AUTO 20003KT 10SM CLR 08/03 A3024 RMK AO2 SLP196 T00780028

More Conditions Fewer Conditions

10-Day Weather Forecast

Almanac

Astronomy

Sep. 22, 2014 Rise Set
Actual Time 6:47 AM PDT 6:56 PM PDT
Civil Twilight 6:21 AM PDT 7:23 PM PDT
Nautical Twilight 5:50 AM PDT 7:54 PM PDT
Astronomical Twilight 5:18 AM PDT 8:26 PM PDT
Moon 5:21 AM PDT 6:06 PM PDT
Length of Visible Light 13h 02m
Length of Day
12h 09m
Tomorrow will be 2m 31s shorter.
Waning Crescent, 4% of the Moon is Illuminated
Today
Waning Crescent
Sep 24
New
Oct 1
First Quarter
Oct 8
Full
Oct 15
Last Quarter

Community

WunderPhotos

Upload Photos

1,755,392 photos uploaded!

Nearby

Snow Depth

Station Depth Elevation
Fallen Leaf 0 in 6300 ft
Summit Meadow 1 in 9122 ft
Leavitt Lake 1 in 9400 ft
Rubicon #2 0 in 7500 ft
Forestdale Creek 0 in 8029 ft

Earthquake Activity

City Distance Mag. Time & Date
Gabbs, Nevada 101 miles 3.3 4:37 AM PDT
2014-09-19
Livermore, California 126 miles 2.6 3:37 AM PDT
2014-09-19
Minimum magnitude displayed is 2.5.

Coastal Water Temperatures

Place Temperature
No Stations Reporting

Nearby Weather Stations